Babaculandia, Brazil
Current Conditions -  °F | °C
As of 3:00 PM on Thursday 23 Oct 2014 (Local Time) from SBCI Reporting Station
Broken Clouds Broken Clouds  
Wind Chill: 82°   Ceiling: 9000
Heat Index: 86°   Visibility: 6mi
Dew Point: 70°   Wind: 12mph
Humidity: 66%   Direction: 350°N
Pressure: 29.88"   Gusts: NA
Location:  7.2°S, 47.76°W
Report Text: SBCI 231800Z 35010KT 9999 FEW020 BKN090 28/21 Q1012 RETS
Loading
Personal Weather Stations






























Interactive Weather Map
Tropical Storm Tracking
New forecast layout! Learn more

10-Day Weather Forecast

Advertisements
Track Severe Weather on mobile